createdAt,value
2022-08-29T00:01:10.916Z,11.77
2022-08-29T00:03:38.065Z,12.27
2022-08-29T00:06:06.728Z,12.55
2022-08-29T00:08:33.965Z,12.48
2022-08-29T00:11:00.877Z,12.05
2022-08-29T00:13:27.827Z,12.35
2022-08-29T00:15:54.926Z,12.63
2022-08-29T00:18:22.003Z,13.35
2022-08-29T00:20:49.280Z,13.05
2022-08-29T00:23:17.052Z,14.35
2022-08-29T00:25:44.372Z,13.85
2022-08-29T00:28:11.929Z,13.68
2022-08-29T00:30:39.143Z,13.40
2022-08-29T00:33:07.011Z,13.32
2022-08-29T00:35:37.219Z,14.30
2022-08-29T00:38:07.337Z,14.70
2022-08-29T00:40:51.170Z,13.48
2022-08-29T00:43:25.847Z,13.75
2022-08-29T00:46:17.065Z,14.32
2022-08-29T00:48:50.258Z,14.43
2022-08-29T00:51:21.690Z,14.80
2022-08-29T00:53:53.266Z,14.30
2022-08-29T00:56:21.462Z,13.85
2022-08-29T00:58:53.678Z,15.70
2022-08-29T01:01:21.381Z,16.25
2022-08-29T01:03:48.731Z,17.85
2022-08-29T01:06:15.757Z,18.67
2022-08-29T01:08:44.079Z,18.27
2022-08-29T01:11:33.163Z,18.33
2022-08-29T01:14:01.704Z,19.38
2022-08-29T01:16:30.298Z,20.63
2022-08-29T01:19:03.317Z,20.45
2022-08-29T01:21:50.138Z,20.17
2022-08-29T01:24:39.203Z,18.88
2022-08-29T01:27:07.470Z,18.63
2022-08-29T01:29:36.118Z,17.98
2022-08-29T01:32:03.818Z,18.65
2022-08-29T01:34:30.999Z,19.00
2022-08-29T01:37:04.172Z,18.88
2022-08-29T01:39:34.436Z,19.00
2022-08-29T01:42:10.541Z,18.33
2022-08-29T01:44:39.855Z,18.83
2022-08-29T01:47:09.133Z,18.17
2022-08-29T01:49:40.510Z,19.05
2022-08-29T01:52:09.179Z,19.45
2022-08-29T01:54:36.468Z,18.98
2022-08-29T01:57:03.481Z,20.17
2022-08-29T01:59:31.859Z,19.98
2022-08-29T02:02:29.183Z,19.95
2022-08-29T02:04:58.636Z,21.55
2022-08-29T02:07:26.504Z,22.25
2022-08-29T02:09:53.882Z,24.00
2022-08-29T02:12:21.125Z,22.00
2022-08-29T02:14:50.751Z,22.90
2022-08-29T02:17:18.579Z,21.98
2022-08-29T02:19:46.040Z,23.17
2022-08-29T02:22:13.633Z,22.90
2022-08-29T02:24:40.606Z,22.65
2022-08-29T02:27:09.443Z,20.83
2022-08-29T02:29:38.383Z,20.77
2022-08-29T02:32:12.252Z,22.63
2022-08-29T02:34:43.934Z,20.45
2022-08-29T02:37:13.057Z,20.48
2022-08-29T02:39:40.066Z,22.70
2022-08-29T02:42:07.042Z,22.50
2022-08-29T02:44:34.276Z,20.95
2022-08-29T02:47:01.280Z,21.92
2022-08-29T02:49:28.414Z,21.67
2022-08-29T02:51:57.382Z,19.83
2022-08-29T02:54:24.215Z,19.02
2022-08-29T02:56:51.071Z,20.45
2022-08-29T02:59:17.853Z,19.70
2022-08-29T03:01:44.909Z,20.30
2022-08-29T03:04:12.094Z,19.10
2022-08-29T03:06:39.076Z,17.95
2022-08-29T03:09:07.224Z,18.92
2022-08-29T03:11:34.274Z,18.27
2022-08-29T03:14:01.510Z,18.17
2022-08-29T03:16:29.230Z,19.80
2022-08-29T03:18:56.365Z,18.30
2022-08-29T03:21:26.050Z,19.63
2022-08-29T03:23:55.301Z,20.75
2022-08-29T03:26:23.719Z,19.75
2022-08-29T03:28:51.200Z,20.77
2022-08-29T03:31:18.331Z,19.92
2022-08-29T03:33:45.258Z,20.42
2022-08-29T03:36:14.399Z,21.30
2022-08-29T03:38:43.770Z,18.90
2022-08-29T03:41:11.381Z,19.00
2022-08-29T03:43:38.867Z,17.85
2022-08-29T03:46:05.829Z,16.63
2022-08-29T03:48:33.705Z,17.75
2022-08-29T03:51:01.816Z,17.52
2022-08-29T03:53:30.688Z,15.93
2022-08-29T03:55:57.706Z,16.40
2022-08-29T03:58:25.130Z,16.23
2022-08-29T04:00:52.010Z,15.15
2022-08-29T04:03:20.365Z,16.02
2022-08-29T04:05:51.972Z,14.98
2022-08-29T04:08:22.515Z,15.65
2022-08-29T04:10:49.999Z,13.68
2022-08-29T04:13:16.779Z,13.05
2022-08-29T04:15:43.807Z,12.00
2022-08-29T04:18:11.642Z,10.55
2022-08-29T04:20:44.905Z,11.00
2022-08-29T04:23:14.091Z,10.77
2022-08-29T04:25:43.470Z,11.50
2022-08-29T04:28:12.936Z,10.82
2022-08-29T04:30:40.585Z,10.80
2022-08-29T04:33:07.652Z,9.93
2022-08-29T04:35:37.259Z,8.75
2022-08-29T04:38:04.295Z,9.45
2022-08-29T04:40:31.508Z,8.82
2022-08-29T04:42:59.546Z,8.93
2022-08-29T04:45:27.056Z,9.02
2022-08-29T04:47:53.961Z,9.32
2022-08-29T04:50:23.423Z,8.05
2022-08-29T04:52:52.361Z,10.35
2022-08-29T04:55:25.441Z,9.75
2022-08-29T04:57:56.496Z,9.07
2022-08-29T05:00:27.400Z,8.52
2022-08-29T05:02:55.846Z,10.07
2022-08-29T05:05:23.224Z,10.05
2022-08-29T05:07:50.293Z,9.85
2022-08-29T05:10:21.828Z,9.93
2022-08-29T05:12:49.393Z,12.13
2022-08-29T05:15:16.763Z,11.00
2022-08-29T05:17:44.173Z,13.98
2022-08-29T05:20:12.089Z,12.55
2022-08-29T05:22:40.410Z,12.25
2022-08-29T05:25:07.889Z,14.43
2022-08-29T05:27:34.991Z,13.20
2022-08-29T05:30:04.130Z,13.35
2022-08-29T05:32:31.036Z,13.77
2022-08-29T05:34:58.853Z,14.02
2022-08-29T05:37:26.179Z,15.35
2022-08-29T05:39:53.063Z,12.32
2022-08-29T05:42:22.202Z,14.65
2022-08-29T05:44:49.672Z,13.80
2022-08-29T05:47:18.219Z,14.82
2022-08-29T05:49:46.899Z,13.63
2022-08-29T05:52:16.539Z,15.18
2022-08-29T05:54:44.126Z,16.10
2022-08-29T05:57:18.148Z,17.75
2022-08-29T05:59:47.144Z,18.85
2022-08-29T06:02:14.891Z,19.27
2022-08-29T06:04:42.060Z,16.90
2022-08-29T06:07:09.837Z,17.50
2022-08-29T06:09:38.993Z,15.43
2022-08-29T06:12:06.560Z,15.15
2022-08-29T06:14:33.660Z,12.90
2022-08-29T06:17:01.075Z,13.43
2022-08-29T06:19:31.255Z,12.05
2022-08-29T06:21:58.235Z,13.30
2022-08-29T06:24:25.070Z,15.70
2022-08-29T06:26:51.907Z,13.15
2022-08-29T06:29:18.825Z,14.38
2022-08-29T06:31:45.937Z,15.13
2022-08-29T06:34:12.783Z,14.73
2022-08-29T06:36:39.930Z,14.68
2022-08-29T06:39:09.763Z,14.90
2022-08-29T06:41:39.267Z,13.95
2022-08-29T06:44:07.081Z,11.50
2022-08-29T06:46:40.056Z,14.18
2022-08-29T06:49:09.664Z,14.07
2022-08-29T06:51:43.383Z,13.07
2022-08-29T06:54:11.915Z,13.50
2022-08-29T06:56:39.776Z,11.15
2022-08-29T06:59:09.710Z,10.52
2022-08-29T07:01:38.420Z,9.50
2022-08-29T07:04:05.432Z,9.40
2022-08-29T07:06:42.287Z,9.82
2022-08-29T07:09:09.786Z,8.68
2022-08-29T07:11:41.094Z,9.90
2022-08-29T07:14:08.885Z,10.45
2022-08-29T07:16:36.848Z,9.95
2022-08-29T07:19:06.256Z,10.25
2022-08-29T07:21:33.725Z,9.95
2022-08-29T07:24:00.657Z,10.68
2022-08-29T07:26:31.472Z,10.40
2022-08-29T07:29:03.296Z,10.10
2022-08-29T07:31:31.502Z,10.35
2022-08-29T07:34:02.344Z,10.65
2022-08-29T07:36:34.558Z,9.73
2022-08-29T07:39:04.003Z,9.73
2022-08-29T07:41:31.168Z,10.13
2022-08-29T07:43:58.198Z,10.18
2022-08-29T07:46:26.993Z,9.25
2022-08-29T07:48:54.409Z,10.15
2022-08-29T07:51:23.876Z,7.70
2022-08-29T07:53:51.859Z,7.70
2022-08-29T07:56:24.512Z,8.07
2022-08-29T07:58:52.654Z,7.68
2022-08-29T08:01:21.390Z,7.40
2022-08-29T08:03:50.153Z,6.03
2022-08-29T08:06:19.622Z,6.30
2022-08-29T08:08:47.020Z,6.28
2022-08-29T08:11:14.162Z,6.53
2022-08-29T08:13:41.863Z,7.15
2022-08-29T08:16:12.317Z,4.63
2022-08-29T08:18:40.656Z,5.80
2022-08-29T08:21:07.905Z,5.75
2022-08-29T08:23:35.179Z,6.10
2022-08-29T08:26:02.185Z,4.97
2022-08-29T08:28:30.561Z,4.90
2022-08-29T08:31:03.587Z,5.28
2022-08-29T08:33:34.929Z,5.63
2022-08-29T08:36:03.120Z,4.85
2022-08-29T08:38:31.102Z,4.55
2022-08-29T08:41:13.517Z,4.05
2022-08-29T08:44:09.720Z,4.38
2022-08-29T08:46:47.800Z,4.05
2022-08-29T08:49:23.095Z,4.35
2022-08-29T08:51:55.152Z,4.43
2022-08-29T08:54:26.792Z,4.95
2022-08-29T08:57:08.025Z,3.60
2022-08-29T08:59:43.142Z,3.88
2022-08-29T09:02:28.937Z,4.93
2022-08-29T09:05:10.932Z,4.65
2022-08-29T09:08:00.029Z,3.90
2022-08-29T09:10:59.193Z,4.53
2022-08-29T09:13:41.525Z,3.67
2022-08-29T09:16:25.847Z,4.03
2022-08-29T09:19:04.491Z,3.10
2022-08-29T09:21:41.149Z,3.25
2022-08-29T09:24:15.953Z,3.20
2022-08-29T09:26:43.660Z,2.47
2022-08-29T09:29:13.964Z,3.60
2022-08-29T09:31:41.354Z,3.50
2022-08-29T09:34:13.396Z,3.78
2022-08-29T09:36:48.097Z,3.25
2022-08-29T09:39:31.721Z,3.03
2022-08-29T09:42:19.269Z,3.00
2022-08-29T09:44:56.416Z,3.40
2022-08-29T09:47:24.393Z,3.17
2022-08-29T09:50:24.512Z,3.10
2022-08-29T09:53:05.775Z,2.75
2022-08-29T09:55:42.544Z,2.05
2022-08-29T09:58:21.488Z,3.55
2022-08-29T10:01:07.236Z,3.38
2022-08-29T10:03:41.989Z,2.90
2022-08-29T10:06:10.928Z,3.10
2022-08-29T10:08:40.337Z,3.05
2022-08-29T10:11:16.392Z,3.05
2022-08-29T10:13:54.698Z,2.58
2022-08-29T10:16:27.860Z,3.30
2022-08-29T10:19:03.887Z,2.88
2022-08-29T10:21:47.040Z,3.08
2022-08-29T10:24:41.594Z,3.03
2022-08-29T10:27:08.348Z,2.80
2022-08-29T10:29:48.094Z,2.70
2022-08-29T10:32:14.810Z,2.85
2022-08-29T10:34:47.133Z,3.35
2022-08-29T10:37:42.675Z,2.72
2022-08-29T10:40:20.518Z,2.78
2022-08-29T10:42:50.378Z,2.88
2022-08-29T10:45:36.772Z,3.22
2022-08-29T10:48:11.675Z,3.08
2022-08-29T10:50:44.990Z,2.22
2022-08-29T10:53:24.915Z,2.83
2022-08-29T10:56:09.415Z,2.65
2022-08-29T10:59:00.623Z,3.13
2022-08-29T11:01:42.429Z,3.47
2022-08-29T11:04:20.976Z,2.78
2022-08-29T11:07:19.576Z,2.92
2022-08-29T11:09:57.254Z,3.67
2022-08-29T11:12:28.207Z,3.22
2022-08-29T11:15:36.217Z,2.60
2022-08-29T11:18:24.368Z,2.88
2022-08-29T11:20:58.354Z,3.35
2022-08-29T11:23:39.553Z,2.25
2022-08-29T11:26:20.034Z,2.78
2022-08-29T11:28:57.880Z,1.73
2022-08-29T11:31:43.348Z,2.05
2022-08-29T11:34:39.711Z,2.65
2022-08-29T11:37:40.488Z,2.45
2022-08-29T11:43:22.934Z,2.00
2022-08-29T11:46:02.528Z,2.10
2022-08-29T11:48:31.504Z,2.30
2022-08-29T11:50:59.363Z,2.30
2022-08-29T11:53:37.524Z,2.10
2022-08-29T11:56:13.372Z,2.03
2022-08-29T11:58:40.429Z,2.55
2022-08-29T12:01:13.108Z,2.30
2022-08-29T12:03:44.822Z,2.67
2022-08-29T12:06:48.902Z,2.13
2022-08-29T12:09:50.290Z,2.88
2022-08-29T12:12:36.298Z,2.20
2022-08-29T12:15:41.036Z,2.60
2022-08-29T12:18:07.755Z,2.17
2022-08-29T12:20:40.695Z,2.35
2022-08-29T12:23:13.347Z,2.08
2022-08-29T12:25:44.816Z,2.38
2022-08-29T12:28:17.369Z,2.20
2022-08-29T12:30:48.946Z,2.15
2022-08-29T12:33:41.444Z,2.08
2022-08-29T12:36:32.973Z,2.22
2022-08-29T12:39:33.823Z,2.03
2022-08-29T12:42:12.824Z,2.33
2022-08-29T12:44:46.220Z,2.92
2022-08-29T12:47:40.895Z,2.35
2022-08-29T12:50:37.491Z,2.20
2022-08-29T12:53:19.447Z,2.20
2022-08-29T12:55:55.570Z,1.90
2022-08-29T12:58:37.602Z,2.35
2022-08-29T13:01:16.895Z,2.50
2022-08-29T13:03:59.289Z,2.05
2022-08-29T13:06:26.851Z,1.70
2022-08-29T13:08:53.879Z,1.98
2022-08-29T13:11:24.263Z,1.92
2022-08-29T13:13:51.146Z,1.90
2022-08-29T13:16:28.134Z,2.05
2022-08-29T13:19:09.961Z,1.83
2022-08-29T13:21:37.529Z,1.83
2022-08-29T13:24:19.357Z,2.33
2022-08-29T13:27:04.951Z,1.85
2022-08-29T13:29:42.220Z,2.20
2022-08-29T13:32:26.302Z,1.80
2022-08-29T13:35:05.264Z,2.05
2022-08-29T13:37:35.963Z,1.50
2022-08-29T13:40:29.683Z,1.90
2022-08-29T13:42:58.961Z,2.22
2022-08-29T13:45:26.227Z,2.13
2022-08-29T13:48:12.314Z,1.70
2022-08-29T13:50:39.529Z,2.42
2022-08-29T13:53:07.009Z,2.60
2022-08-29T13:55:34.607Z,1.73
2022-08-29T13:58:01.684Z,1.75
2022-08-29T14:00:35.075Z,2.13
2022-08-29T14:03:06.012Z,1.65
2022-08-29T14:05:35.257Z,1.80
2022-08-29T14:08:02.460Z,2.00
2022-08-29T14:10:29.276Z,1.98
2022-08-29T14:12:56.194Z,1.63
2022-08-29T14:15:22.959Z,2.00
2022-08-29T14:17:49.927Z,1.95
2022-08-29T14:20:18.490Z,1.30
2022-08-29T14:22:47.016Z,1.83
2022-08-29T14:25:16.877Z,2.10
2022-08-29T14:27:44.670Z,1.80
2022-08-29T14:30:13.793Z,1.45
2022-08-29T14:32:40.766Z,2.30
2022-08-29T14:35:08.794Z,2.10
2022-08-29T14:37:36.186Z,1.83
2022-08-29T14:40:05.672Z,2.00
2022-08-29T14:42:32.779Z,1.88
2022-08-29T14:44:59.654Z,2.35
2022-08-29T14:47:26.520Z,1.83
2022-08-29T14:49:53.344Z,2.10
2022-08-29T14:52:20.189Z,2.13
2022-08-29T14:54:47.057Z,2.17
2022-08-29T14:57:13.851Z,2.10
2022-08-29T14:59:41.604Z,2.72
2022-08-29T15:02:09.997Z,2.28
2022-08-29T15:04:37.909Z,2.03
2022-08-29T15:07:10.578Z,2.08
2022-08-29T15:09:38.041Z,1.90
2022-08-29T15:12:05.984Z,1.73
2022-08-29T15:14:34.560Z,1.48
2022-08-29T15:17:02.473Z,2.10
2022-08-29T15:22:16.436Z,1.80
2022-08-29T15:24:44.499Z,1.80
2022-08-29T15:27:12.212Z,1.88
2022-08-29T15:29:42.123Z,1.95
2022-08-29T15:32:10.861Z,1.48
2022-08-29T15:34:38.080Z,1.30
2022-08-29T15:37:06.318Z,1.80
2022-08-29T15:39:33.308Z,1.85
2022-08-29T15:42:03.335Z,1.60
2022-08-29T15:44:30.162Z,1.63
2022-08-29T15:46:58.196Z,1.38
2022-08-29T15:49:26.310Z,1.58
2022-08-29T15:51:54.370Z,1.40
2022-08-29T15:54:22.570Z,1.48
2022-08-29T15:56:50.570Z,1.80
2022-08-29T15:59:19.162Z,1.38
2022-08-29T16:01:52.242Z,1.40
2022-08-29T16:04:22.257Z,1.67
2022-08-29T16:06:50.168Z,1.67
2022-08-29T16:09:17.584Z,1.48
2022-08-29T16:11:45.578Z,1.70
2022-08-29T16:14:57.606Z,1.63
2022-08-29T16:16:59.452Z,1.67
2022-08-29T16:19:26.289Z,1.52
2022-08-29T16:21:53.702Z,1.90
2022-08-29T16:24:21.898Z,2.28
2022-08-29T16:26:48.780Z,1.95
2022-08-29T16:29:23.990Z,2.13
2022-08-29T16:31:57.919Z,1.70
2022-08-29T16:34:28.781Z,2.40
2022-08-29T16:36:59.790Z,1.95
2022-08-29T16:39:27.532Z,1.80
2022-08-29T16:41:54.657Z,2.28
2022-08-29T16:44:21.799Z,2.75
2022-08-29T16:46:48.661Z,1.95
2022-08-29T16:49:15.459Z,2.65
2022-08-29T16:51:42.318Z,3.97
2022-08-29T16:54:09.135Z,3.83
2022-08-29T16:56:36.007Z,3.03
2022-08-29T16:59:04.382Z,2.75
2022-08-29T17:01:35.703Z,2.08
2022-08-29T17:04:04.550Z,2.38
2022-08-29T17:06:32.267Z,2.25
2022-08-29T17:08:59.647Z,2.08
2022-08-29T17:11:27.259Z,2.22
2022-08-29T17:13:54.671Z,2.30
2022-08-29T17:16:22.733Z,2.40
2022-08-29T17:18:49.762Z,2.55
2022-08-29T17:21:17.167Z,2.35
2022-08-29T17:23:44.481Z,2.00
2022-08-29T17:26:16.426Z,2.33
2022-08-29T17:28:45.640Z,2.90
2022-08-29T17:31:13.443Z,2.60
2022-08-29T17:33:40.698Z,3.53
2022-08-29T17:36:09.746Z,2.67
2022-08-29T17:38:39.953Z,3.13
2022-08-29T17:41:15.264Z,3.10
2022-08-29T17:43:45.300Z,3.35
2022-08-29T17:46:12.211Z,2.70
2022-08-29T17:48:39.701Z,2.92
2022-08-29T17:51:09.152Z,2.38
2022-08-29T17:53:36.115Z,3.42
2022-08-29T17:56:18.788Z,3.42
2022-08-29T17:58:45.624Z,3.30
2022-08-29T18:01:16.584Z,3.90
2022-08-29T18:03:45.448Z,3.42
2022-08-29T18:06:14.588Z,3.00
2022-08-29T18:08:48.047Z,3.72
2022-08-29T18:11:16.507Z,3.83
2022-08-29T18:13:43.635Z,3.28
2022-08-29T18:16:11.595Z,4.30
2022-08-29T18:18:38.851Z,3.60
2022-08-29T18:21:05.803Z,3.70
2022-08-29T18:23:33.531Z,4.80
2022-08-29T18:26:00.906Z,4.53
2022-08-29T18:28:27.832Z,5.20
2022-08-29T18:30:55.301Z,4.93
2022-08-29T18:33:22.203Z,5.90
2022-08-29T18:35:49.444Z,4.88
2022-08-29T18:38:16.393Z,5.55
2022-08-29T18:40:44.030Z,5.63
2022-08-29T18:43:13.351Z,4.70
2022-08-29T18:45:41.217Z,5.28
2022-08-29T18:48:09.286Z,4.97
2022-08-29T18:50:36.566Z,5.07
2022-08-29T18:53:23.536Z,5.57
2022-08-29T18:55:52.615Z,5.18
2022-08-29T18:58:25.389Z,5.03
2022-08-29T19:00:53.358Z,4.15
2022-08-29T19:03:21.719Z,6.25
2022-08-29T19:05:50.515Z,5.22
2022-08-29T19:08:19.734Z,5.80
2022-08-29T19:10:47.983Z,5.63
2022-08-29T19:13:16.020Z,4.38
2022-08-29T19:15:47.277Z,4.40
2022-08-29T19:18:16.079Z,4.93
2022-08-29T19:21:02.081Z,4.35
2022-08-29T19:23:33.497Z,5.00
2022-08-29T19:26:01.775Z,5.68
2022-08-29T19:28:29.216Z,5.28
2022-08-29T19:30:57.234Z,6.22
2022-08-29T19:33:24.585Z,6.25
2022-08-29T19:35:53.581Z,6.72
2022-08-29T19:38:22.639Z,6.60
2022-08-29T19:40:55.343Z,5.80
2022-08-29T19:43:29.528Z,6.10
2022-08-29T19:45:57.923Z,7.47
2022-08-29T19:48:26.603Z,5.35
2022-08-29T19:50:54.139Z,5.00
2022-08-29T19:53:25.975Z,5.28
2022-08-29T19:55:53.924Z,6.18
2022-08-29T19:58:22.770Z,5.03
2022-08-29T20:00:57.981Z,4.95
2022-08-29T20:03:25.205Z,4.50
2022-08-29T20:05:52.124Z,4.78
2022-08-29T20:08:19.036Z,5.22
2022-08-29T20:10:50.130Z,5.70
2022-08-29T20:13:17.494Z,5.28
2022-08-29T20:15:44.810Z,5.25
2022-08-29T20:18:13.023Z,6.07
2022-08-29T20:20:40.178Z,5.55
2022-08-29T20:23:07.871Z,6.22
2022-08-29T20:25:35.585Z,6.75
2022-08-29T20:28:04.064Z,5.65
2022-08-29T20:30:33.352Z,6.35
2022-08-29T20:33:00.979Z,5.55
2022-08-29T20:35:46.592Z,5.03
2022-08-29T20:38:13.707Z,4.25
2022-08-29T20:40:46.872Z,5.70
2022-08-29T20:43:18.650Z,5.55
2022-08-29T20:45:46.018Z,6.20
2022-08-29T20:48:13.771Z,6.30
2022-08-29T20:50:40.809Z,5.60
2022-08-29T20:53:08.301Z,5.38
2022-08-29T20:55:36.580Z,4.63
2022-08-29T20:58:03.782Z,4.80
2022-08-29T21:00:30.829Z,5.03
2022-08-29T21:03:16.614Z,4.57
2022-08-29T21:05:43.771Z,5.22
2022-08-29T21:08:15.122Z,6.05
2022-08-29T21:10:43.564Z,6.28
2022-08-29T21:13:10.947Z,5.07
2022-08-29T21:15:39.282Z,5.60
2022-08-29T21:18:06.884Z,4.82
2022-08-29T21:20:41.369Z,5.57
2022-08-29T21:23:23.167Z,5.43
2022-08-29T21:25:58.924Z,4.88
2022-08-29T21:28:28.621Z,5.28
2022-08-29T21:30:55.978Z,5.28
2022-08-29T21:33:23.186Z,5.45
2022-08-29T21:35:50.334Z,5.78
2022-08-29T21:38:18.392Z,5.50
2022-08-29T21:40:50.977Z,5.40
2022-08-29T21:43:19.646Z,4.63
2022-08-29T21:45:47.871Z,5.40
2022-08-29T21:48:14.803Z,5.40
2022-08-29T21:50:43.140Z,4.88
2022-08-29T21:53:14.598Z,6.43
2022-08-29T21:55:41.750Z,6.28
2022-08-29T21:58:08.572Z,6.15
2022-08-29T22:00:36.941Z,5.50
2022-08-29T22:03:06.640Z,6.38
2022-08-29T22:05:33.721Z,7.28
2022-08-29T22:08:03.084Z,6.13
2022-08-29T22:10:33.973Z,5.70
2022-08-29T22:13:02.071Z,5.40
2022-08-29T22:15:47.859Z,6.07
2022-08-29T22:18:15.307Z,5.50
2022-08-29T22:20:44.210Z,6.03
2022-08-29T22:23:11.151Z,5.03
2022-08-29T22:25:38.392Z,6.18
2022-08-29T22:28:05.832Z,5.60
2022-08-29T22:30:33.362Z,6.32
2022-08-29T22:33:01.166Z,7.10
2022-08-29T22:35:28.796Z,6.55
2022-08-29T22:37:55.847Z,6.00
2022-08-29T22:40:23.342Z,6.65
2022-08-29T22:42:50.857Z,6.10
2022-08-29T22:45:18.630Z,5.93
2022-08-29T22:47:46.966Z,5.75
2022-08-29T22:50:21.070Z,6.35
2022-08-29T22:52:48.728Z,5.35
2022-08-29T22:55:20.226Z,5.32
2022-08-29T22:57:47.917Z,5.70
2022-08-29T23:00:17.791Z,6.03
2022-08-29T23:02:45.007Z,5.60
2022-08-29T23:05:12.292Z,5.63
2022-08-29T23:07:40.100Z,5.18
2022-08-29T23:10:08.939Z,5.88
2022-08-29T23:12:36.329Z,5.47
2022-08-29T23:15:08.407Z,5.55
2022-08-29T23:17:35.702Z,5.28
2022-08-29T23:20:03.807Z,5.07
2022-08-29T23:22:31.928Z,5.32
2022-08-29T23:24:59.434Z,5.60
2022-08-29T23:27:28.926Z,5.82
2022-08-29T23:29:56.590Z,5.45
2022-08-29T23:32:23.713Z,7.50
2022-08-29T23:34:50.642Z,7.43
2022-08-29T23:37:17.498Z,8.50
2022-08-29T23:39:44.337Z,7.13
2022-08-29T23:42:11.150Z,8.15
2022-08-29T23:44:38.515Z,6.88
2022-08-29T23:47:05.794Z,6.80
2022-08-29T23:49:35.447Z,7.07
2022-08-29T23:52:03.029Z,5.95
2022-08-29T23:54:31.475Z,6.60
2022-08-29T23:56:58.445Z,6.45
2022-08-29T23:59:44.101Z,6.03
